createdAt,value
2022-12-03T00:11:53.167Z,0.00
2022-12-03T00:16:53.041Z,0.00
2022-12-03T00:21:53.047Z,0.00
2022-12-03T00:26:52.860Z,0.00
2022-12-03T00:31:52.880Z,0.00
2022-12-03T00:36:52.640Z,0.00
2022-12-03T00:41:52.780Z,0.00
2022-12-03T00:46:52.727Z,0.00
2022-12-03T00:51:52.675Z,0.00
2022-12-03T00:56:52.409Z,0.00
2022-12-03T01:01:55.439Z,0.00
2022-12-03T01:08:10.161Z,0.00
2022-12-03T01:13:09.777Z,0.00
2022-12-03T01:18:10.023Z,0.00
2022-12-03T01:23:09.775Z,0.00
2022-12-03T01:28:09.658Z,0.00
2022-12-03T01:33:09.596Z,0.00
2022-12-03T01:38:09.560Z,0.00
2022-12-03T01:43:09.481Z,0.00
2022-12-03T01:48:09.380Z,0.00
2022-12-03T01:53:09.371Z,0.00
2022-12-03T01:58:12.208Z,0.00
2022-12-03T02:03:09.157Z,0.00
2022-12-03T02:08:09.235Z,0.00
2022-12-03T02:13:08.992Z,0.00
2022-12-03T02:18:09.114Z,0.00
2022-12-03T02:23:08.864Z,0.00
2022-12-03T02:28:08.942Z,0.00
2022-12-03T02:33:08.735Z,0.00
2022-12-03T02:38:08.745Z,0.00
2022-12-03T02:43:08.696Z,0.00
2022-12-03T02:48:08.774Z,0.00
2022-12-03T02:53:08.700Z,0.00
2022-12-03T02:58:11.642Z,0.00
2022-12-03T03:03:08.379Z,0.00
2022-12-03T03:08:08.396Z,0.00
2022-12-03T03:13:08.327Z,0.00
2022-12-03T03:18:08.276Z,0.00
2022-12-03T03:23:08.090Z,0.00
2022-12-03T03:28:08.126Z,0.00
2022-12-03T03:33:08.025Z,0.00
2022-12-03T03:38:08.094Z,0.00
2022-12-03T03:43:07.910Z,0.00
2022-12-03T03:48:07.893Z,0.00
2022-12-03T03:53:15.892Z,0.00
2022-12-03T03:58:10.791Z,0.00
2022-12-03T04:03:07.881Z,0.00
2022-12-03T04:08:07.677Z,0.00
2022-12-03T04:13:07.562Z,0.00
2022-12-03T04:18:07.442Z,0.00
2022-12-03T04:23:07.475Z,0.00
2022-12-03T04:28:07.356Z,0.00
2022-12-03T04:33:07.451Z,0.00
2022-12-03T04:38:07.320Z,0.00
2022-12-03T04:43:07.260Z,0.00
2022-12-03T04:48:07.039Z,0.00
2022-12-03T04:53:07.256Z,0.00
2022-12-03T04:58:18.271Z,0.00
2022-12-03T05:03:07.128Z,0.00
2022-12-03T05:08:07.033Z,0.00
2022-12-03T05:13:06.815Z,0.00
2022-12-03T05:18:06.839Z,0.00
2022-12-03T05:23:06.654Z,0.00
2022-12-03T05:28:14.647Z,0.00
2022-12-03T05:33:06.607Z,0.00
2022-12-03T05:38:06.625Z,0.00
2022-12-03T05:44:24.354Z,0.00
2022-12-03T05:49:23.858Z,0.00
2022-12-03T05:54:24.077Z,0.00
2022-12-03T05:59:23.925Z,0.00
2022-12-03T06:04:23.697Z,0.00
2022-12-03T06:09:23.581Z,0.00
2022-12-03T06:14:23.635Z,0.00
2022-12-03T06:19:23.575Z,0.00
2022-12-03T06:24:23.435Z,0.00
2022-12-03T06:29:23.509Z,0.00
2022-12-03T06:34:26.329Z,4.00
2022-12-03T06:39:23.259Z,4.00
2022-12-03T06:44:23.275Z,8.00
2022-12-03T06:49:23.286Z,12.00
2022-12-03T06:54:23.202Z,24.00
2022-12-03T06:59:23.015Z,36.00
2022-12-03T07:04:23.023Z,52.00
2022-12-03T07:09:22.929Z,60.00
2022-12-03T07:14:22.904Z,80.00
2022-12-03T07:19:26.326Z,108.00
2022-12-03T07:24:23.774Z,156.00
2022-12-03T07:29:22.566Z,192.00
2022-12-03T07:34:25.651Z,228.00
2022-12-03T07:39:22.571Z,260.00
2022-12-03T07:44:22.430Z,312.00
2022-12-03T07:49:22.425Z,344.00
2022-12-03T07:54:22.296Z,340.00
2022-12-03T07:59:22.250Z,344.00
2022-12-03T08:04:22.273Z,300.00
2022-12-03T08:09:23.186Z,312.00
2022-12-03T08:14:22.083Z,292.00
2022-12-03T08:19:22.215Z,292.00
2022-12-03T08:24:21.885Z,324.00
2022-12-03T08:29:21.840Z,316.00
2022-12-03T08:34:24.991Z,348.00
2022-12-03T08:39:21.806Z,332.00
2022-12-03T08:44:21.790Z,372.00
2022-12-03T08:49:29.132Z,432.00
2022-12-03T08:54:21.478Z,548.00
2022-12-03T08:59:21.645Z,584.00
2022-12-03T09:04:21.666Z,660.00
2022-12-03T09:09:21.521Z,656.00
2022-12-03T09:14:21.380Z,688.00
2022-12-03T09:19:21.220Z,728.00
2022-12-03T09:24:21.214Z,760.00
2022-12-03T09:29:21.096Z,852.00
2022-12-03T09:34:24.043Z,928.00
2022-12-03T09:39:20.913Z,1084.00
2022-12-03T09:44:20.891Z,1148.00
2022-12-03T09:49:20.817Z,1168.00
2022-12-03T09:54:20.925Z,1240.00
2022-12-03T09:59:20.704Z,1360.00
2022-12-03T10:04:20.843Z,1428.00
2022-12-03T10:09:20.628Z,1416.00
2022-12-03T10:14:20.763Z,1428.00
2022-12-03T10:19:20.553Z,1364.00
2022-12-03T10:24:20.467Z,1408.00
2022-12-03T10:29:20.438Z,1504.00
2022-12-03T10:34:23.966Z,1472.00
2022-12-03T10:39:28.232Z,1560.00
2022-12-03T10:44:20.285Z,1648.00
2022-12-03T10:49:27.608Z,1716.00
2022-12-03T10:54:20.077Z,1604.00
2022-12-03T10:59:20.160Z,1416.00
2022-12-03T11:04:19.866Z,1516.00
2022-12-03T11:09:20.068Z,1556.00
2022-12-03T11:14:22.874Z,1580.00
2022-12-03T11:19:20.501Z,1720.00
2022-12-03T11:24:19.727Z,1572.00
2022-12-03T11:29:19.554Z,1480.00
2022-12-03T11:34:22.490Z,1368.00
2022-12-03T11:39:19.408Z,1424.00
2022-12-03T11:44:19.667Z,1432.00
2022-12-03T11:49:19.341Z,1176.00
2022-12-03T11:54:19.341Z,1080.00
2022-12-03T11:59:19.172Z,1224.00
2022-12-03T12:04:19.356Z,1512.00
2022-12-03T12:09:19.051Z,1568.00
2022-12-03T12:14:19.001Z,1484.00
2022-12-03T12:20:48.130Z,1520.00
2022-12-03T12:25:53.776Z,1640.00
2022-12-03T12:30:48.875Z,1780.00
2022-12-03T12:35:47.650Z,1776.00
2022-12-03T12:40:47.860Z,1648.00
2022-12-03T12:45:47.448Z,1596.00
2022-12-03T12:50:47.396Z,1536.00
2022-12-03T12:55:47.337Z,1660.00
2022-12-03T13:00:47.462Z,1632.00
2022-12-03T13:05:47.310Z,1440.00
2022-12-03T13:10:50.370Z,1224.00
2022-12-03T13:15:47.111Z,1132.00
2022-12-03T13:20:47.317Z,956.00
2022-12-03T13:26:17.356Z,912.00
2022-12-03T13:43:09.100Z,460.00
2022-12-03T13:48:07.809Z,412.00
2022-12-03T13:56:27.525Z,336.00
2022-12-03T14:03:07.400Z,292.00
2022-12-03T14:08:07.356Z,268.00
2022-12-03T14:13:07.307Z,248.00
2022-12-03T14:18:07.365Z,200.00
2022-12-03T14:23:15.313Z,192.00
2022-12-03T14:28:07.295Z,160.00
2022-12-03T14:33:13.420Z,160.00
2022-12-03T14:38:07.135Z,136.00
2022-12-03T14:43:06.975Z,108.00
2022-12-03T14:48:07.225Z,84.00
2022-12-03T14:54:35.911Z,60.00
2022-12-03T14:59:32.580Z,52.00
2022-12-03T15:04:32.750Z,36.00
2022-12-03T15:13:01.897Z,16.00
2022-12-03T15:18:01.841Z,12.00
2022-12-03T15:29:24.340Z,4.00
2022-12-03T15:34:24.116Z,4.00
2022-12-03T15:39:30.596Z,0.00
2022-12-03T15:58:24.582Z,0.00
2022-12-03T16:03:22.434Z,0.00
2022-12-03T16:08:23.011Z,0.00
2022-12-03T16:13:22.450Z,0.00
2022-12-03T16:18:22.250Z,0.00
2022-12-03T16:23:22.120Z,0.00
2022-12-03T16:30:50.262Z,0.00
2022-12-03T16:35:58.111Z,0.00
2022-12-03T16:40:50.120Z,0.00
2022-12-03T16:45:50.405Z,0.00
2022-12-03T16:50:49.830Z,0.00
2022-12-03T16:55:49.797Z,0.00
2022-12-03T17:00:49.896Z,0.00
2022-12-03T17:05:49.857Z,0.00
2022-12-03T17:10:49.641Z,0.00
2022-12-03T17:15:50.320Z,0.00
2022-12-03T17:20:52.521Z,0.00
2022-12-03T17:25:49.676Z,0.00
2022-12-03T17:30:49.409Z,0.00
2022-12-03T17:35:51.091Z,0.00
2022-12-03T17:40:57.791Z,0.00
2022-12-03T17:45:49.121Z,0.00
2022-12-03T17:50:49.320Z,0.00
2022-12-03T17:55:49.052Z,0.00
2022-12-03T18:02:21.130Z,0.00
2022-12-03T18:07:21.071Z,0.00
2022-12-03T18:12:21.221Z,0.00
2022-12-03T18:17:21.087Z,0.00
2022-12-03T18:22:20.935Z,0.00
2022-12-03T18:27:20.795Z,0.00
2022-12-03T18:32:28.783Z,0.00
2022-12-03T18:37:21.640Z,0.00
2022-12-03T18:42:20.843Z,0.00
2022-12-03T18:47:20.822Z,0.00
2022-12-03T18:52:23.544Z,0.00
2022-12-03T18:57:20.529Z,0.00
2022-12-03T19:07:21.670Z,0.00
2022-12-03T19:12:20.225Z,0.00
2022-12-03T19:17:21.187Z,0.00
2022-12-03T19:22:20.627Z,0.00
2022-12-03T19:27:20.050Z,0.00
2022-12-03T19:32:19.884Z,0.00
2022-12-03T19:37:19.852Z,0.00
2022-12-03T19:42:20.017Z,0.00
2022-12-03T19:47:19.885Z,0.00
2022-12-03T19:52:22.859Z,0.00
2022-12-03T19:57:23.287Z,0.00
2022-12-03T20:02:19.812Z,0.00
2022-12-03T20:07:19.565Z,0.00
2022-12-03T20:12:19.540Z,0.00
2022-12-03T20:17:19.476Z,0.00
2022-12-03T20:22:20.655Z,0.00
2022-12-03T20:27:22.772Z,0.00
2022-12-03T20:32:19.334Z,0.00
2022-12-03T20:37:19.055Z,0.00
2022-12-03T20:42:19.186Z,0.00
2022-12-03T20:47:18.917Z,0.00
2022-12-03T20:52:22.300Z,0.00
2022-12-03T20:58:36.628Z,0.00
2022-12-03T21:03:36.308Z,0.00
2022-12-03T21:08:41.440Z,0.00
2022-12-03T21:13:37.301Z,0.00
2022-12-03T21:18:43.535Z,0.00
2022-12-03T21:23:44.240Z,0.00
2022-12-03T21:28:43.757Z,0.00
2022-12-03T21:33:36.027Z,0.00
2022-12-03T21:38:35.951Z,0.00
2022-12-03T21:43:35.913Z,0.00
2022-12-03T21:48:38.816Z,0.00
2022-12-03T21:53:39.139Z,0.00
2022-12-03T21:58:36.656Z,0.00
2022-12-03T22:03:35.768Z,0.00
2022-12-03T22:08:35.685Z,0.00
2022-12-03T22:13:35.724Z,0.00
2022-12-03T22:18:35.408Z,0.00
2022-12-03T22:23:35.263Z,0.00
2022-12-03T22:28:35.514Z,0.00
2022-12-03T22:33:35.238Z,0.00
2022-12-03T22:38:35.133Z,0.00
2022-12-03T22:43:35.393Z,0.00
2022-12-03T22:48:38.053Z,0.00
2022-12-03T22:53:34.915Z,0.00
2022-12-03T22:58:34.883Z,0.00
2022-12-03T23:03:35.305Z,0.00
2022-12-03T23:08:35.115Z,0.00
2022-12-03T23:13:36.361Z,0.00
2022-12-03T23:18:34.818Z,0.00
2022-12-03T23:23:34.503Z,0.00
2022-12-03T23:28:34.619Z,0.00
2022-12-03T23:33:38.417Z,0.00
2022-12-03T23:38:34.472Z,0.00
2022-12-03T23:43:34.258Z,0.00
2022-12-03T23:48:45.067Z,0.00
2022-12-03T23:54:52.072Z,0.00
2022-12-03T23:59:52.061Z,0.00
